sensor_id;sensor_type;location;lat;lon;timestamp;P1;durP1;ratioP1;P2;durP2;ratioP2
3817;SDS011;1924;48.078;11.516;2023-03-03T00:00:52;23.23;;;0.70;;
3817;SDS011;1924;48.078;11.516;2023-03-03T00:03:20;23.30;;;0.80;;
3817;SDS011;1924;48.078;11.516;2023-03-03T00:05:49;23.27;;;0.80;;
3817;SDS011;1924;48.078;11.516;2023-03-03T00:08:17;23.27;;;0.80;;
3817;SDS011;1924;48.078;11.516;2023-03-03T00:10:44;23.20;;;0.80;;
3817;SDS011;1924;48.078;11.516;2023-03-03T00:13:12;23.10;;;0.77;;
3817;SDS011;1924;48.078;11.516;2023-03-03T00:15:41;23.07;;;0.80;;
3817;SDS011;1924;48.078;11.516;2023-03-03T00:18:20;23.27;;;0.80;;
3817;SDS011;1924;48.078;11.516;2023-03-03T00:20:53;23.03;;;0.80;;
3817;SDS011;1924;48.078;11.516;2023-03-03T00:23:23;23.00;;;0.80;;
3817;SDS011;1924;48.078;11.516;2023-03-03T00:25:55;23.00;;;0.70;;
3817;SDS011;1924;48.078;11.516;2023-03-03T00:28:25;23.17;;;0.80;;
3817;SDS011;1924;48.078;11.516;2023-03-03T00:30:53;23.10;;;0.80;;
3817;SDS011;1924;48.078;11.516;2023-03-03T00:33:23;23.10;;;0.80;;
3817;SDS011;1924;48.078;11.516;2023-03-03T00:35:54;23.00;;;0.80;;
3817;SDS011;1924;48.078;11.516;2023-03-03T00:38:22;23.10;;;0.77;;
3817;SDS011;1924;48.078;11.516;2023-03-03T00:40:49;23.00;;;0.80;;
3817;SDS011;1924;48.078;11.516;2023-03-03T00:43:19;22.90;;;0.80;;
3817;SDS011;1924;48.078;11.516;2023-03-03T00:45:48;23.17;;;0.80;;
3817;SDS011;1924;48.078;11.516;2023-03-03T00:48:18;22.90;;;0.80;;
3817;SDS011;1924;48.078;11.516;2023-03-03T00:50:51;23.10;;;0.80;;
3817;SDS011;1924;48.078;11.516;2023-03-03T00:53:21;23.10;;;0.80;;
3817;SDS011;1924;48.078;11.516;2023-03-03T00:55:49;23.10;;;0.80;;
3817;SDS011;1924;48.078;11.516;2023-03-03T00:58:17;23.10;;;0.77;;
3817;SDS011;1924;48.078;11.516;2023-03-03T01:00:45;23.10;;;0.80;;
3817;SDS011;1924;48.078;11.516;2023-03-03T01:03:13;23.00;;;0.80;;
3817;SDS011;1924;48.078;11.516;2023-03-03T01:05:41;23.07;;;0.80;;
3817;SDS011;1924;48.078;11.516;2023-03-03T01:08:08;22.80;;;0.80;;
3817;SDS011;1924;48.078;11.516;2023-03-03T01:10:37;23.17;;;0.80;;
3817;SDS011;1924;48.078;11.516;2023-03-03T01:13:07;22.87;;;0.80;;
3817;SDS011;1924;48.078;11.516;2023-03-03T01:15:34;23.17;;;0.80;;
3817;SDS011;1924;48.078;11.516;2023-03-03T01:18:00;23.00;;;0.80;;
3817;SDS011;1924;48.078;11.516;2023-03-03T01:20:27;23.10;;;0.80;;
3817;SDS011;1924;48.078;11.516;2023-03-03T01:22:54;22.80;;;0.80;;
3817;SDS011;1924;48.078;11.516;2023-03-03T01:25:21;23.10;;;0.80;;
3817;SDS011;1924;48.078;11.516;2023-03-03T01:27:49;23.00;;;0.80;;
3817;SDS011;1924;48.078;11.516;2023-03-03T01:30:15;23.03;;;0.80;;
3817;SDS011;1924;48.078;11.516;2023-03-03T01:32:42;22.90;;;0.80;;
3817;SDS011;1924;48.078;11.516;2023-03-03T01:35:09;22.90;;;0.80;;
3817;SDS011;1924;48.078;11.516;2023-03-03T01:37:36;23.13;;;0.80;;
3817;SDS011;1924;48.078;11.516;2023-03-03T01:40:03;23.00;;;0.80;;
3817;SDS011;1924;48.078;11.516;2023-03-03T01:42:30;23.07;;;0.73;;
3817;SDS011;1924;48.078;11.516;2023-03-03T01:45:13;22.80;;;0.80;;
3817;SDS011;1924;48.078;11.516;2023-03-03T01:47:51;23.03;;;0.80;;
3817;SDS011;1924;48.078;11.516;2023-03-03T01:50:26;22.90;;;0.80;;
3817;SDS011;1924;48.078;11.516;2023-03-03T01:52:57;22.80;;;0.80;;
3817;SDS011;1924;48.078;11.516;2023-03-03T01:55:27;22.97;;;0.80;;
3817;SDS011;1924;48.078;11.516;2023-03-03T01:57:57;22.97;;;0.80;;
3817;SDS011;1924;48.078;11.516;2023-03-03T02:00:29;23.00;;;0.80;;
3817;SDS011;1924;48.078;11.516;2023-03-03T02:02:57;22.80;;;0.80;;
3817;SDS011;1924;48.078;11.516;2023-03-03T02:05:24;22.90;;;0.73;;
3817;SDS011;1924;48.078;11.516;2023-03-03T02:07:51;22.90;;;0.80;;
3817;SDS011;1924;48.078;11.516;2023-03-03T02:10:18;22.70;;;0.77;;
3817;SDS011;1924;48.078;11.516;2023-03-03T02:12:48;22.90;;;0.70;;
3817;SDS011;1924;48.078;11.516;2023-03-03T02:15:20;23.00;;;0.80;;
3817;SDS011;1924;48.078;11.516;2023-03-03T02:17:50;23.00;;;0.80;;
3817;SDS011;1924;48.078;11.516;2023-03-03T02:20:24;22.93;;;0.80;;
3817;SDS011;1924;48.078;11.516;2023-03-03T02:23:02;22.97;;;0.80;;
3817;SDS011;1924;48.078;11.516;2023-03-03T02:25:38;23.00;;;0.80;;
3817;SDS011;1924;48.078;11.516;2023-03-03T02:28:16;22.80;;;0.80;;
3817;SDS011;1924;48.078;11.516;2023-03-03T02:30:43;22.97;;;0.80;;
3817;SDS011;1924;48.078;11.516;2023-03-03T02:33:10;22.97;;;0.80;;
3817;SDS011;1924;48.078;11.516;2023-03-03T02:35:38;22.70;;;0.80;;
3817;SDS011;1924;48.078;11.516;2023-03-03T02:38:08;22.70;;;0.80;;
3817;SDS011;1924;48.078;11.516;2023-03-03T02:40:43;22.97;;;0.80;;
3817;SDS011;1924;48.078;11.516;2023-03-03T02:43:17;22.90;;;0.80;;
3817;SDS011;1924;48.078;11.516;2023-03-03T02:45:46;22.90;;;0.80;;
3817;SDS011;1924;48.078;11.516;2023-03-03T02:48:13;22.90;;;0.80;;
3817;SDS011;1924;48.078;11.516;2023-03-03T02:50:39;22.97;;;0.80;;
3817;SDS011;1924;48.078;11.516;2023-03-03T02:53:06;22.90;;;0.80;;
3817;SDS011;1924;48.078;11.516;2023-03-03T02:55:33;22.80;;;0.80;;
3817;SDS011;1924;48.078;11.516;2023-03-03T02:57:59;22.80;;;0.80;;
3817;SDS011;1924;48.078;11.516;2023-03-03T03:00:27;22.93;;;0.80;;
3817;SDS011;1924;48.078;11.516;2023-03-03T03:02:54;22.70;;;0.80;;
3817;SDS011;1924;48.078;11.516;2023-03-03T03:05:21;22.70;;;0.80;;
3817;SDS011;1924;48.078;11.516;2023-03-03T05:00:38;23.00;;;0.70;;
3817;SDS011;1924;48.078;11.516;2023-03-03T05:03:05;22.70;;;0.80;;
3817;SDS011;1924;48.078;11.516;2023-03-03T05:05:32;22.90;;;0.73;;
3817;SDS011;1924;48.078;11.516;2023-03-03T05:07:58;23.00;;;0.80;;
3817;SDS011;1924;48.078;11.516;2023-03-03T05:10:25;23.00;;;0.77;;
3817;SDS011;1924;48.078;11.516;2023-03-03T05:12:52;22.87;;;0.80;;
3817;SDS011;1924;48.078;11.516;2023-03-03T05:15:18;23.00;;;0.80;;
3817;SDS011;1924;48.078;11.516;2023-03-03T05:17:46;23.00;;;0.73;;
3817;SDS011;1924;48.078;11.516;2023-03-03T05:20:13;22.90;;;0.80;;
3817;SDS011;1924;48.078;11.516;2023-03-03T05:22:40;22.87;;;0.80;;
3817;SDS011;1924;48.078;11.516;2023-03-03T05:25:07;23.00;;;0.70;;
3817;SDS011;1924;48.078;11.516;2023-03-03T05:27:36;22.90;;;0.80;;
3817;SDS011;1924;48.078;11.516;2023-03-03T05:30:03;23.00;;;0.70;;
3817;SDS011;1924;48.078;11.516;2023-03-03T05:32:31;23.03;;;0.80;;
3817;SDS011;1924;48.078;11.516;2023-03-03T05:34:59;23.10;;;0.80;;
3817;SDS011;1924;48.078;11.516;2023-03-03T05:37:26;23.07;;;0.80;;
3817;SDS011;1924;48.078;11.516;2023-03-03T05:39:52;23.10;;;0.80;;
3817;SDS011;1924;48.078;11.516;2023-03-03T05:42:19;23.10;;;0.70;;
3817;SDS011;1924;48.078;11.516;2023-03-03T05:44:46;23.00;;;0.70;;
3817;SDS011;1924;48.078;11.516;2023-03-03T05:47:12;22.90;;;0.70;;
3817;SDS011;1924;48.078;11.516;2023-03-03T05:49:39;23.00;;;0.80;;
3817;SDS011;1924;48.078;11.516;2023-03-03T05:52:07;23.00;;;0.70;;
3817;SDS011;1924;48.078;11.516;2023-03-03T05:54:35;23.07;;;0.70;;
3817;SDS011;1924;48.078;11.516;2023-03-03T05:57:02;23.07;;;0.77;;
3817;SDS011;1924;48.078;11.516;2023-03-03T05:59:28;23.10;;;0.70;;
3817;SDS011;1924;48.078;11.516;2023-03-03T06:01:55;22.90;;;0.70;;
3817;SDS011;1924;48.078;11.516;2023-03-03T06:04:22;22.90;;;0.80;;
3817;SDS011;1924;48.078;11.516;2023-03-03T06:06:48;23.07;;;0.70;;
3817;SDS011;1924;48.078;11.516;2023-03-03T06:09:16;23.03;;;0.80;;
3817;SDS011;1924;48.078;11.516;2023-03-03T06:11:44;23.17;;;0.73;;
3817;SDS011;1924;48.078;11.516;2023-03-03T06:14:11;23.00;;;0.73;;
3817;SDS011;1924;48.078;11.516;2023-03-03T06:16:37;23.10;;;0.70;;
3817;SDS011;1924;48.078;11.516;2023-03-03T06:19:04;23.27;;;0.77;;
3817;SDS011;1924;48.078;11.516;2023-03-03T06:21:31;23.20;;;0.70;;
3817;SDS011;1924;48.078;11.516;2023-03-03T06:23:57;23.10;;;0.70;;
3817;SDS011;1924;48.078;11.516;2023-03-03T06:26:26;23.00;;;0.80;;
3817;SDS011;1924;48.078;11.516;2023-03-03T06:28:52;23.10;;;0.73;;
3817;SDS011;1924;48.078;11.516;2023-03-03T06:31:19;23.20;;;0.73;;
3817;SDS011;1924;48.078;11.516;2023-03-03T06:33:46;23.00;;;0.70;;
3817;SDS011;1924;48.078;11.516;2023-03-03T06:36:13;23.07;;;0.70;;
3817;SDS011;1924;48.078;11.516;2023-03-03T06:38:39;23.10;;;0.73;;
3817;SDS011;1924;48.078;11.516;2023-03-03T06:41:06;23.20;;;0.70;;
3817;SDS011;1924;48.078;11.516;2023-03-03T06:43:34;23.20;;;0.80;;
3817;SDS011;1924;48.078;11.516;2023-03-03T06:46:02;23.20;;;0.70;;
3817;SDS011;1924;48.078;11.516;2023-03-03T06:48:29;23.10;;;0.80;;
3817;SDS011;1924;48.078;11.516;2023-03-03T06:50:57;23.20;;;0.77;;
3817;SDS011;1924;48.078;11.516;2023-03-03T06:53:25;23.27;;;0.80;;
3817;SDS011;1924;48.078;11.516;2023-03-03T06:55:53;23.10;;;0.80;;
3817;SDS011;1924;48.078;11.516;2023-03-03T06:58:20;23.20;;;0.70;;
3817;SDS011;1924;48.078;11.516;2023-03-03T07:00:51;23.27;;;0.73;;
3817;SDS011;1924;48.078;11.516;2023-03-03T07:03:20;23.30;;;0.80;;
3817;SDS011;1924;48.078;11.516;2023-03-03T07:05:49;23.30;;;0.80;;
3817;SDS011;1924;48.078;11.516;2023-03-03T07:08:18;23.40;;;0.77;;
3817;SDS011;1924;48.078;11.516;2023-03-03T07:10:46;23.30;;;0.80;;
3817;SDS011;1924;48.078;11.516;2023-03-03T07:13:18;23.30;;;0.80;;
3817;SDS011;1924;48.078;11.516;2023-03-03T07:15:47;23.20;;;0.80;;
3817;SDS011;1924;48.078;11.516;2023-03-03T07:21:06;23.30;;;0.70;;
3817;SDS011;1924;48.078;11.516;2023-03-03T07:23:41;23.20;;;0.80;;
3817;SDS011;1924;48.078;11.516;2023-03-03T07:26:10;23.30;;;0.73;;
3817;SDS011;1924;48.078;11.516;2023-03-03T07:28:40;23.40;;;0.70;;
3817;SDS011;1924;48.078;11.516;2023-03-03T07:34:13;23.30;;;0.80;;
3817;SDS011;1924;48.078;11.516;2023-03-03T07:36:44;23.30;;;0.70;;
3817;SDS011;1924;48.078;11.516;2023-03-03T07:39:17;23.40;;;0.70;;
3817;SDS011;1924;48.078;11.516;2023-03-03T07:41:57;23.40;;;0.77;;
3817;SDS011;1924;48.078;11.516;2023-03-03T07:44:28;23.50;;;0.80;;
3817;SDS011;1924;48.078;11.516;2023-03-03T07:47:00;23.30;;;0.80;;
3817;SDS011;1924;48.078;11.516;2023-03-03T07:49:43;23.37;;;0.70;;
3817;SDS011;1924;48.078;11.516;2023-03-03T07:52:17;23.30;;;0.80;;
3817;SDS011;1924;48.078;11.516;2023-03-03T07:54:50;23.30;;;0.70;;
3817;SDS011;1924;48.078;11.516;2023-03-03T07:57:19;23.37;;;0.80;;
3817;SDS011;1924;48.078;11.516;2023-03-03T07:59:48;23.50;;;0.70;;
3817;SDS011;1924;48.078;11.516;2023-03-03T08:02:28;23.60;;;0.80;;
3817;SDS011;1924;48.078;11.516;2023-03-03T08:07:52;23.50;;;0.70;;
3817;SDS011;1924;48.078;11.516;2023-03-03T08:10:33;23.60;;;0.80;;
3817;SDS011;1924;48.078;11.516;2023-03-03T08:13:06;23.30;;;0.80;;
3817;SDS011;1924;48.078;11.516;2023-03-03T08:15:41;23.50;;;0.80;;
3817;SDS011;1924;48.078;11.516;2023-03-03T08:18:14;23.60;;;0.70;;
3817;SDS011;1924;48.078;11.516;2023-03-03T08:20:47;23.80;;;0.80;;
3817;SDS011;1924;48.078;11.516;2023-03-03T08:23:15;23.80;;;0.80;;
3817;SDS011;1924;48.078;11.516;2023-03-03T08:25:43;23.60;;;0.80;;
3817;SDS011;1924;48.078;11.516;2023-03-03T08:28:10;23.70;;;0.77;;
3817;SDS011;1924;48.078;11.516;2023-03-03T08:30:38;23.70;;;0.80;;
3817;SDS011;1924;48.078;11.516;2023-03-03T08:33:05;23.80;;;0.73;;
3817;SDS011;1924;48.078;11.516;2023-03-03T08:35:33;23.80;;;0.80;;
3817;SDS011;1924;48.078;11.516;2023-03-03T08:38:00;23.80;;;0.80;;
3817;SDS011;1924;48.078;11.516;2023-03-03T08:40:27;23.80;;;0.77;;
3817;SDS011;1924;48.078;11.516;2023-03-03T08:42:54;23.90;;;0.80;;
3817;SDS011;1924;48.078;11.516;2023-03-03T08:45:22;24.00;;;0.80;;
3817;SDS011;1924;48.078;11.516;2023-03-03T08:47:49;24.10;;;0.73;;
3817;SDS011;1924;48.078;11.516;2023-03-03T08:50:16;24.10;;;0.80;;
3817;SDS011;1924;48.078;11.516;2023-03-03T08:52:44;24.17;;;0.80;;
3817;SDS011;1924;48.078;11.516;2023-03-03T08:55:11;24.10;;;0.80;;
3817;SDS011;1924;48.078;11.516;2023-03-03T08:57:39;23.90;;;0.80;;
3817;SDS011;1924;48.078;11.516;2023-03-03T09:00:06;24.00;;;0.80;;
3817;SDS011;1924;48.078;11.516;2023-03-03T09:02:34;24.10;;;0.80;;
3817;SDS011;1924;48.078;11.516;2023-03-03T09:05:02;24.20;;;0.80;;
3817;SDS011;1924;48.078;11.516;2023-03-03T09:07:30;24.17;;;0.80;;
3817;SDS011;1924;48.078;11.516;2023-03-03T09:09:58;24.10;;;0.80;;
3817;SDS011;1924;48.078;11.516;2023-03-03T09:12:28;24.20;;;0.80;;
3817;SDS011;1924;48.078;11.516;2023-03-03T09:14:57;24.20;;;0.80;;
3817;SDS011;1924;48.078;11.516;2023-03-03T09:17:29;24.17;;;0.80;;
3817;SDS011;1924;48.078;11.516;2023-03-03T09:19:59;24.20;;;0.80;;
3817;SDS011;1924;48.078;11.516;2023-03-03T09:22:42;24.40;;;0.80;;
3817;SDS011;1924;48.078;11.516;2023-03-03T09:25:17;24.37;;;0.80;;
3817;SDS011;1924;48.078;11.516;2023-03-03T09:27:47;24.30;;;0.80;;
3817;SDS011;1924;48.078;11.516;2023-03-03T09:30:26;24.50;;;0.80;;
3817;SDS011;1924;48.078;11.516;2023-03-03T09:33:15;24.50;;;0.80;;
3817;SDS011;1924;48.078;11.516;2023-03-03T09:35:49;24.60;;;0.80;;
3817;SDS011;1924;48.078;11.516;2023-03-03T09:38:27;24.40;;;0.80;;
3817;SDS011;1924;48.078;11.516;2023-03-03T09:41:04;24.50;;;0.80;;
3817;SDS011;1924;48.078;11.516;2023-03-03T09:43:50;24.60;;;0.80;;
3817;SDS011;1924;48.078;11.516;2023-03-03T09:46:28;24.40;;;0.80;;
3817;SDS011;1924;48.078;11.516;2023-03-03T09:49:04;24.50;;;0.80;;
3817;SDS011;1924;48.078;11.516;2023-03-03T09:51:51;24.60;;;0.80;;
3817;SDS011;1924;48.078;11.516;2023-03-03T09:54:41;24.60;;;0.80;;
3817;SDS011;1924;48.078;11.516;2023-03-03T09:57:17;24.60;;;0.80;;
3817;SDS011;1924;48.078;11.516;2023-03-03T09:59:56;24.60;;;0.80;;
3817;SDS011;1924;48.078;11.516;2023-03-03T10:02:43;24.70;;;0.80;;
3817;SDS011;1924;48.078;11.516;2023-03-03T10:05:18;24.67;;;0.80;;
3817;SDS011;1924;48.078;11.516;2023-03-03T10:07:58;24.70;;;0.80;;
3817;SDS011;1924;48.078;11.516;2023-03-03T10:13:37;24.60;;;0.80;;
3817;SDS011;1924;48.078;11.516;2023-03-03T10:16:20;24.60;;;0.80;;
3817;SDS011;1924;48.078;11.516;2023-03-03T10:18:57;24.80;;;0.80;;
3817;SDS011;1924;48.078;11.516;2023-03-03T10:21:28;24.60;;;0.80;;
3817;SDS011;1924;48.078;11.516;2023-03-03T10:24:02;24.70;;;0.80;;
3817;SDS011;1924;48.078;11.516;2023-03-03T10:26:49;24.60;;;0.80;;
3817;SDS011;1924;48.078;11.516;2023-03-03T10:29:30;24.70;;;0.80;;
3817;SDS011;1924;48.078;11.516;2023-03-03T10:32:17;24.90;;;0.87;;
3817;SDS011;1924;48.078;11.516;2023-03-03T10:35:07;24.70;;;0.80;;
3817;SDS011;1924;48.078;11.516;2023-03-03T10:37:50;24.67;;;0.80;;
3817;SDS011;1924;48.078;11.516;2023-03-03T10:40:34;24.50;;;0.80;;
3817;SDS011;1924;48.078;11.516;2023-03-03T10:43:22;24.50;;;0.80;;
3817;SDS011;1924;48.078;11.516;2023-03-03T10:46:06;24.50;;;0.80;;
3817;SDS011;1924;48.078;11.516;2023-03-03T10:48:49;24.50;;;0.80;;
3817;SDS011;1924;48.078;11.516;2023-03-03T10:51:46;24.37;;;0.80;;
3817;SDS011;1924;48.078;11.516;2023-03-03T10:54:27;24.47;;;0.80;;
3817;SDS011;1924;48.078;11.516;2023-03-03T10:57:09;24.40;;;0.80;;
3817;SDS011;1924;48.078;11.516;2023-03-03T10:59:48;24.30;;;0.80;;
3817;SDS011;1924;48.078;11.516;2023-03-03T11:02:27;24.20;;;0.77;;
3817;SDS011;1924;48.078;11.516;2023-03-03T11:05:08;24.50;;;0.80;;
3817;SDS011;1924;48.078;11.516;2023-03-03T11:07:47;24.50;;;0.80;;
3817;SDS011;1924;48.078;11.516;2023-03-03T11:10:20;24.60;;;0.80;;
3817;SDS011;1924;48.078;11.516;2023-03-03T11:12:57;24.60;;;0.80;;
3817;SDS011;1924;48.078;11.516;2023-03-03T11:15:40;24.80;;;0.80;;
3817;SDS011;1924;48.078;11.516;2023-03-03T11:18:18;24.80;;;0.80;;
3817;SDS011;1924;48.078;11.516;2023-03-03T11:20:51;24.80;;;0.80;;
3817;SDS011;1924;48.078;11.516;2023-03-03T11:26:39;24.53;;;0.80;;
3817;SDS011;1924;48.078;11.516;2023-03-03T11:29:21;24.40;;;0.80;;
3817;SDS011;1924;48.078;11.516;2023-03-03T11:32:00;24.70;;;0.80;;
3817;SDS011;1924;48.078;11.516;2023-03-03T11:34:49;24.60;;;0.80;;
3817;SDS011;1924;48.078;11.516;2023-03-03T11:37:23;24.70;;;0.80;;
3817;SDS011;1924;48.078;11.516;2023-03-03T11:39:55;24.50;;;0.77;;
3817;SDS011;1924;48.078;11.516;2023-03-03T11:42:27;24.60;;;0.80;;
3817;SDS011;1924;48.078;11.516;2023-03-03T11:45:04;24.50;;;0.80;;
3817;SDS011;1924;48.078;11.516;2023-03-03T11:47:40;24.77;;;0.77;;
3817;SDS011;1924;48.078;11.516;2023-03-03T11:50:15;24.70;;;0.80;;
3817;SDS011;1924;48.078;11.516;2023-03-03T11:52:47;24.57;;;0.80;;
3817;SDS011;1924;48.078;11.516;2023-03-03T11:55:22;24.50;;;0.80;;
3817;SDS011;1924;48.078;11.516;2023-03-03T11:57:54;24.60;;;0.80;;
3817;SDS011;1924;48.078;11.516;2023-03-03T12:00:31;24.60;;;0.77;;
3817;SDS011;1924;48.078;11.516;2023-03-03T12:05:57;24.80;;;0.80;;
3817;SDS011;1924;48.078;11.516;2023-03-03T12:08:39;24.70;;;0.80;;
3817;SDS011;1924;48.078;11.516;2023-03-03T12:11:13;24.90;;;0.80;;
3817;SDS011;1924;48.078;11.516;2023-03-03T12:13:49;25.00;;;0.80;;
3817;SDS011;1924;48.078;11.516;2023-03-03T12:16:24;25.00;;;0.80;;
3817;SDS011;1924;48.078;11.516;2023-03-03T12:19:06;25.30;;;0.80;;
3817;SDS011;1924;48.078;11.516;2023-03-03T12:21:45;25.20;;;0.80;;
3817;SDS011;1924;48.078;11.516;2023-03-03T12:24:30;25.10;;;0.80;;
3817;SDS011;1924;48.078;11.516;2023-03-03T12:27:07;25.30;;;0.80;;
3817;SDS011;1924;48.078;11.516;2023-03-03T12:29:42;25.20;;;0.80;;
3817;SDS011;1924;48.078;11.516;2023-03-03T12:32:23;25.47;;;0.80;;
3817;SDS011;1924;48.078;11.516;2023-03-03T12:35:01;25.30;;;0.80;;
3817;SDS011;1924;48.078;11.516;2023-03-03T12:37:46;25.20;;;0.80;;
3817;SDS011;1924;48.078;11.516;2023-03-03T12:40:19;25.30;;;0.80;;
3817;SDS011;1924;48.078;11.516;2023-03-03T12:42:58;25.20;;;0.80;;
3817;SDS011;1924;48.078;11.516;2023-03-03T12:45:36;25.00;;;0.80;;
3817;SDS011;1924;48.078;11.516;2023-03-03T12:48:13;25.20;;;0.80;;
3817;SDS011;1924;48.078;11.516;2023-03-03T12:50:46;25.20;;;0.80;;
3817;SDS011;1924;48.078;11.516;2023-03-03T12:53:29;25.00;;;0.80;;
3817;SDS011;1924;48.078;11.516;2023-03-03T12:56:05;25.00;;;0.80;;
3817;SDS011;1924;48.078;11.516;2023-03-03T12:58:36;24.90;;;0.80;;
3817;SDS011;1924;48.078;11.516;2023-03-03T13:01:14;25.10;;;0.80;;
3817;SDS011;1924;48.078;11.516;2023-03-03T13:03:54;25.00;;;0.80;;
3817;SDS011;1924;48.078;11.516;2023-03-03T13:06:27;25.10;;;0.80;;
3817;SDS011;1924;48.078;11.516;2023-03-03T13:09:03;24.90;;;0.80;;
3817;SDS011;1924;48.078;11.516;2023-03-03T13:11:47;25.10;;;0.80;;
3817;SDS011;1924;48.078;11.516;2023-03-03T13:14:27;24.80;;;0.77;;
3817;SDS011;1924;48.078;11.516;2023-03-03T13:17:03;24.70;;;0.80;;
3817;SDS011;1924;48.078;11.516;2023-03-03T13:19:42;24.87;;;0.80;;
3817;SDS011;1924;48.078;11.516;2023-03-03T13:22:15;24.90;;;0.80;;
3817;SDS011;1924;48.078;11.516;2023-03-03T13:24:53;24.80;;;0.80;;
3817;SDS011;1924;48.078;11.516;2023-03-03T13:27:30;24.90;;;0.80;;
3817;SDS011;1924;48.078;11.516;2023-03-03T13:30:01;24.90;;;0.80;;
3817;SDS011;1924;48.078;11.516;2023-03-03T13:32:34;25.10;;;0.80;;
3817;SDS011;1924;48.078;11.516;2023-03-03T13:35:13;25.17;;;0.80;;
3817;SDS011;1924;48.078;11.516;2023-03-03T13:37:53;25.10;;;0.80;;
3817;SDS011;1924;48.078;11.516;2023-03-03T13:40:24;25.00;;;0.80;;
3817;SDS011;1924;48.078;11.516;2023-03-03T13:42:54;25.00;;;0.80;;
3817;SDS011;1924;48.078;11.516;2023-03-03T13:45:29;25.10;;;0.80;;
3817;SDS011;1924;48.078;11.516;2023-03-03T13:48:04;25.10;;;0.80;;
3817;SDS011;1924;48.078;11.516;2023-03-03T13:50:38;25.00;;;0.80;;
3817;SDS011;1924;48.078;11.516;2023-03-03T13:53:26;25.10;;;0.80;;
3817;SDS011;1924;48.078;11.516;2023-03-03T13:56:03;25.20;;;0.80;;
3817;SDS011;1924;48.078;11.516;2023-03-03T13:58:41;25.10;;;0.80;;
3817;SDS011;1924;48.078;11.516;2023-03-03T14:01:15;25.30;;;0.80;;
3817;SDS011;1924;48.078;11.516;2023-03-03T14:03:51;25.30;;;0.80;;
3817;SDS011;1924;48.078;11.516;2023-03-03T14:06:25;25.30;;;0.80;;
3817;SDS011;1924;48.078;11.516;2023-03-03T14:11:50;25.40;;;0.80;;
3817;SDS011;1924;48.078;11.516;2023-03-03T14:14:29;25.50;;;0.80;;
3817;SDS011;1924;48.078;11.516;2023-03-03T14:17:06;25.33;;;0.83;;
3817;SDS011;1924;48.078;11.516;2023-03-03T14:19:38;25.40;;;0.80;;
3817;SDS011;1924;48.078;11.516;2023-03-03T14:22:12;25.37;;;0.80;;
3817;SDS011;1924;48.078;11.516;2023-03-03T14:24:55;25.40;;;0.80;;
3817;SDS011;1924;48.078;11.516;2023-03-03T14:27:28;25.40;;;0.80;;
3817;SDS011;1924;48.078;11.516;2023-03-03T14:33:01;25.40;;;0.80;;
3817;SDS011;1924;48.078;11.516;2023-03-03T14:35:42;25.30;;;0.80;;
3817;SDS011;1924;48.078;11.516;2023-03-03T14:38:14;25.30;;;0.80;;
3817;SDS011;1924;48.078;11.516;2023-03-03T14:40:43;25.30;;;0.80;;
3817;SDS011;1924;48.078;11.516;2023-03-03T14:43:25;25.27;;;0.80;;
3817;SDS011;1924;48.078;11.516;2023-03-03T14:46:01;25.10;;;0.80;;
3817;SDS011;1924;48.078;11.516;2023-03-03T14:48:52;25.20;;;0.80;;
3817;SDS011;1924;48.078;11.516;2023-03-03T14:51:22;25.30;;;0.80;;
3817;SDS011;1924;48.078;11.516;2023-03-03T14:53:51;25.30;;;0.80;;
3817;SDS011;1924;48.078;11.516;2023-03-03T14:56:20;25.13;;;0.80;;
3817;SDS011;1924;48.078;11.516;2023-03-03T14:58:50;25.20;;;0.80;;
3817;SDS011;1924;48.078;11.516;2023-03-03T15:01:29;25.20;;;0.70;;
3817;SDS011;1924;48.078;11.516;2023-03-03T15:03:58;25.10;;;0.77;;
3817;SDS011;1924;48.078;11.516;2023-03-03T15:06:28;25.10;;;0.80;;
3817;SDS011;1924;48.078;11.516;2023-03-03T15:11:54;25.00;;;0.80;;
3817;SDS011;1924;48.078;11.516;2023-03-03T15:14:24;25.00;;;0.80;;
3817;SDS011;1924;48.078;11.516;2023-03-03T15:16:56;25.10;;;0.80;;
3817;SDS011;1924;48.078;11.516;2023-03-03T15:19:39;25.10;;;0.80;;
3817;SDS011;1924;48.078;11.516;2023-03-03T15:22:15;25.17;;;0.80;;
3817;SDS011;1924;48.078;11.516;2023-03-03T15:24:48;25.20;;;0.80;;
3817;SDS011;1924;48.078;11.516;2023-03-03T15:27:26;25.07;;;0.80;;
3817;SDS011;1924;48.078;11.516;2023-03-03T15:30:00;25.10;;;0.80;;
3817;SDS011;1924;48.078;11.516;2023-03-03T15:32:33;25.10;;;0.80;;
3817;SDS011;1924;48.078;11.516;2023-03-03T15:35:09;25.00;;;0.80;;
3817;SDS011;1924;48.078;11.516;2023-03-03T15:37:43;25.07;;;0.80;;
3817;SDS011;1924;48.078;11.516;2023-03-03T15:40:16;25.10;;;0.80;;
3817;SDS011;1924;48.078;11.516;2023-03-03T15:42:51;25.10;;;0.80;;
3817;SDS011;1924;48.078;11.516;2023-03-03T15:45:25;25.07;;;0.80;;
3817;SDS011;1924;48.078;11.516;2023-03-03T15:50:59;25.00;;;0.80;;
3817;SDS011;1924;48.078;11.516;2023-03-03T15:53:35;25.10;;;0.80;;
3817;SDS011;1924;48.078;11.516;2023-03-03T15:56:13;25.10;;;0.70;;
3817;SDS011;1924;48.078;11.516;2023-03-03T16:02:05;25.10;;;0.90;;
3817;SDS011;1924;48.078;11.516;2023-03-03T16:04:42;25.00;;;0.80;;
3817;SDS011;1924;48.078;11.516;2023-03-03T16:07:17;25.10;;;0.80;;
3817;SDS011;1924;48.078;11.516;2023-03-03T16:09:55;25.10;;;0.80;;
3817;SDS011;1924;48.078;11.516;2023-03-03T16:12:37;25.00;;;0.80;;
3817;SDS011;1924;48.078;11.516;2023-03-03T16:15:19;25.10;;;0.80;;
3817;SDS011;1924;48.078;11.516;2023-03-03T16:17:55;25.20;;;0.80;;
3817;SDS011;1924;48.078;11.516;2023-03-03T16:20:30;25.17;;;0.80;;
3817;SDS011;1924;48.078;11.516;2023-03-03T16:23:15;25.10;;;0.80;;
3817;SDS011;1924;48.078;11.516;2023-03-03T16:25:51;25.00;;;0.80;;
3817;SDS011;1924;48.078;11.516;2023-03-03T16:28:40;25.00;;;0.80;;
3817;SDS011;1924;48.078;11.516;2023-03-03T16:31:16;25.10;;;0.80;;
3817;SDS011;1924;48.078;11.516;2023-03-03T16:33:49;25.10;;;0.80;;
3817;SDS011;1924;48.078;11.516;2023-03-03T16:36:26;25.00;;;0.80;;
3817;SDS011;1924;48.078;11.516;2023-03-03T16:38:59;25.00;;;0.80;;
3817;SDS011;1924;48.078;11.516;2023-03-03T16:41:32;25.00;;;0.80;;
3817;SDS011;1924;48.078;11.516;2023-03-03T16:44:11;25.00;;;0.80;;
3817;SDS011;1924;48.078;11.516;2023-03-03T16:46:55;25.10;;;0.80;;
3817;SDS011;1924;48.078;11.516;2023-03-03T16:49:33;25.00;;;0.80;;
3817;SDS011;1924;48.078;11.516;2023-03-03T16:52:11;24.97;;;0.80;;
3817;SDS011;1924;48.078;11.516;2023-03-03T16:54:41;25.03;;;0.80;;
3817;SDS011;1924;48.078;11.516;2023-03-03T16:57:15;24.90;;;0.80;;
3817;SDS011;1924;48.078;11.516;2023-03-03T16:59:51;25.00;;;0.80;;
3817;SDS011;1924;48.078;11.516;2023-03-03T17:02:51;24.80;;;0.80;;
3817;SDS011;1924;48.078;11.516;2023-03-03T17:05:34;24.97;;;0.70;;
3817;SDS011;1924;48.078;11.516;2023-03-03T17:08:11;24.90;;;0.80;;
3817;SDS011;1924;48.078;11.516;2023-03-03T17:11:04;24.90;;;0.80;;
3817;SDS011;1924;48.078;11.516;2023-03-03T17:13:42;24.87;;;0.80;;
3817;SDS011;1924;48.078;11.516;2023-03-03T17:16:21;24.70;;;0.80;;
3817;SDS011;1924;48.078;11.516;2023-03-03T17:18:58;24.90;;;0.80;;
3817;SDS011;1924;48.078;11.516;2023-03-03T17:21:43;24.70;;;0.80;;
3817;SDS011;1924;48.078;11.516;2023-03-03T17:24:22;24.70;;;0.80;;
3817;SDS011;1924;48.078;11.516;2023-03-03T17:27:03;24.70;;;0.80;;
3817;SDS011;1924;48.078;11.516;2023-03-03T17:29:49;24.80;;;0.80;;
3817;SDS011;1924;48.078;11.516;2023-03-03T17:32:25;24.60;;;0.70;;
3817;SDS011;1924;48.078;11.516;2023-03-03T17:35:19;24.50;;;0.80;;
3817;SDS011;1924;48.078;11.516;2023-03-03T17:38:03;24.80;;;0.80;;
3817;SDS011;1924;48.078;11.516;2023-03-03T17:40:40;24.70;;;0.80;;
3817;SDS011;1924;48.078;11.516;2023-03-03T17:43:14;24.80;;;0.70;;
3817;SDS011;1924;48.078;11.516;2023-03-03T17:45:43;24.70;;;0.80;;
3817;SDS011;1924;48.078;11.516;2023-03-03T17:48:23;24.77;;;0.80;;
3817;SDS011;1924;48.078;11.516;2023-03-03T17:51:22;24.77;;;0.80;;